Time;durP1;ratioP1;P1;durP2;ratioP2;P2;SDS_P1;SDS_P2;PMS_P1;PMS_P2;Temp;Humidity;BMP_temperature;BMP_pressure;BME280_temperature;BME280_humidity;BME280_pressure;Samples;Min_cycle;Max_cycle;Signal;HPM_P1;HPM_P2
2022/12/09 00:01:05;;;;;;;8.43;5.17;;;-2.20;99.90;;;;;;5007595;28;20405;-75
2022/12/09 00:03:31;;;;;;;7.53;4.40;;;-2.30;99.90;;;;;;5006155;28;20404;-75
2022/12/09 00:05:56;;;;;;;9.23;5.47;;;-2.30;99.90;;;;;;5009415;28;20429;-77
2022/12/09 00:08:22;;;;;;;7.87;4.90;;;-2.30;99.90;;;;;;5001752;28;20357;-75
2022/12/09 00:10:47;;;;;;;5.83;4.70;;;-2.30;99.90;;;;;;4986250;28;20191;-75
2022/12/09 00:13:13;;;;;;;8.40;4.47;;;-2.40;99.90;;;;;;5003098;28;20198;-76
2022/12/09 00:15:41;;;;;;;8.23;4.40;;;-2.40;99.90;;;;;;5007650;28;20203;-76
2022/12/09 00:18:07;;;;;;;5.47;4.20;;;-2.40;99.90;;;;;;5004026;28;20190;-76
2022/12/09 00:20:32;;;;;;;10.10;5.00;;;-2.40;99.90;;;;;;4994567;28;20775;-75
2022/12/09 00:22:58;;;;;;;4.33;3.83;;;-2.40;99.90;;;;;;4994174;28;20453;-76
2022/12/09 00:25:23;;;;;;;4.70;4.27;;;-2.40;99.90;;;;;;5007890;28;20182;-76
2022/12/09 00:27:49;;;;;;;5.20;4.17;;;-2.50;99.90;;;;;;5014902;28;20213;-76
2022/12/09 00:30:14;;;;;;;5.87;4.30;;;-2.50;99.90;;;;;;5014686;28;20658;-76
2022/12/09 00:32:40;;;;;;;6.00;4.13;;;-2.50;99.90;;;;;;4997124;28;20218;-77
2022/12/09 00:35:06;;;;;;;5.90;3.33;;;-2.50;99.90;;;;;;5014233;28;20182;-76
2022/12/09 00:37:33;;;;;;;5.60;4.10;;;-2.50;99.90;;;;;;5013520;28;20229;-76
2022/12/09 00:39:58;;;;;;;7.50;4.80;;;-2.50;99.90;;;;;;5013673;28;20798;-76
2022/12/09 00:42:24;;;;;;;6.27;4.30;;;-2.60;99.90;;;;;;5012372;28;20531;-76
2022/12/09 00:44:49;;;;;;;9.47;4.87;;;-2.60;99.90;;;;;;5013600;28;20182;-76
2022/12/09 00:47:15;;;;;;;7.40;3.60;;;-2.70;99.90;;;;;;5013403;28;20226;-76
2022/12/09 00:49:41;;;;;;;5.30;4.80;;;-2.70;99.90;;;;;;5013634;28;20174;-76
2022/12/09 00:52:06;;;;;;;5.33;3.50;;;-2.70;99.90;;;;;;5012879;28;20202;-76
2022/12/09 00:54:32;;;;;;;6.37;4.90;;;-2.70;99.90;;;;;;4995459;28;20196;-76
2022/12/09 00:56:57;;;;;;;4.83;3.83;;;-2.70;99.90;;;;;;4995331;28;20188;-76
2022/12/09 00:59:23;;;;;;;4.70;3.83;;;-2.70;99.90;;;;;;5013624;28;20199;-77
2022/12/09 01:01:48;;;;;;;4.10;3.80;;;-2.70;99.90;;;;;;5012921;28;20213;-77
2022/12/09 01:04:16;;;;;;;5.03;4.50;;;-2.70;99.90;;;;;;5013691;28;20267;-75
2022/12/09 01:06:41;;;;;;;9.30;4.37;;;-2.70;99.90;;;;;;5013059;28;20205;-76
2022/12/09 01:09:07;;;;;;;5.13;4.63;;;-2.70;99.90;;;;;;5012936;28;20396;-76
2022/12/09 01:11:33;;;;;;;6.50;3.70;;;-2.80;99.90;;;;;;4995142;28;20592;-77
2022/12/09 01:14:01;;;;;;;5.07;4.17;;;-2.80;99.90;;;;;;4995885;28;20773;-76
2022/12/09 01:16:29;;;;;;;8.23;4.13;;;-2.80;99.90;;;;;;5012697;28;20461;-76
2022/12/09 01:18:58;;;;;;;7.80;4.43;;;-2.90;99.90;;;;;;5013141;28;20448;-76
2022/12/09 01:21:24;;;;;;;8.37;4.50;;;-2.90;99.90;;;;;;5013117;28;20433;-76
2022/12/09 01:23:50;;;;;;;9.80;5.37;;;-2.80;99.90;;;;;;5017939;28;20433;-76
2022/12/09 01:26:15;;;;;;;7.60;4.23;;;-2.90;99.90;;;;;;5013914;28;20470;-76
2022/12/09 01:28:41;;;;;;;6.23;4.30;;;-2.90;99.90;;;;;;5012824;28;20394;-76
2022/12/09 01:31:13;;;;;;;7.80;4.37;;;-2.90;99.90;;;;;;5012462;28;20206;-76
2022/12/09 01:33:39;;;;;;;4.20;3.80;;;-2.90;99.90;;;;;;5012504;28;20206;-75
2022/12/09 01:36:06;;;;;;;6.47;4.47;;;-2.90;99.90;;;;;;5011958;28;20462;-76
2022/12/09 01:38:32;;;;;;;11.10;5.00;;;-2.90;99.90;;;;;;5012325;28;20744;-76
2022/12/09 01:40:57;;;;;;;8.27;4.77;;;-3.00;99.90;;;;;;5008274;28;20527;-76
2022/12/09 01:43:23;;;;;;;8.63;6.23;;;-3.00;99.90;;;;;;5012196;28;20204;-76
2022/12/09 01:45:48;;;;;;;8.80;5.70;;;-3.10;99.90;;;;;;5005305;28;20191;-76
2022/12/09 01:48:17;;;;;;;6.67;4.67;;;-3.00;99.90;;;;;;5012052;28;20292;-76
2022/12/09 01:50:52;;;;;;;9.70;5.47;;;-3.10;99.90;;;;;;5012134;28;20226;-76
2022/12/09 01:53:26;;;;;;;5.10;4.43;;;-3.10;99.90;;;;;;5011932;28;20982;-76
2022/12/09 01:55:59;;;;;;;10.27;4.70;;;-3.10;99.90;;;;;;5006124;28;20437;-76
2022/12/09 01:58:26;;;;;;;9.17;4.83;;;-3.10;99.90;;;;;;5011979;28;20987;-76
2022/12/09 03:31:30;;;;;;;7.40;5.00;;;-3.70;99.90;;;;;;5716710;23;20526;-74
2022/12/09 03:34:01;;;;;;;6.07;5.07;;;-3.60;99.90;;;;;;4997418;28;20417;-74
2022/12/09 03:36:31;;;;;;;7.43;5.13;;;-3.60;99.90;;;;;;4990756;28;20459;-75
2022/12/09 03:38:57;;;;;;;8.30;5.47;;;-3.70;99.90;;;;;;4995167;28;20384;-76
2022/12/09 03:41:23;;;;;;;8.33;5.33;;;-3.70;99.90;;;;;;4995196;28;20557;-75
2022/12/09 03:43:54;;;;;;;11.00;6.93;;;-3.70;99.90;;;;;;4994295;28;20553;-75
2022/12/09 03:46:21;;;;;;;5.70;4.73;;;-3.70;99.90;;;;;;4990779;28;20203;-75
2022/12/09 03:48:47;;;;;;;8.43;6.00;;;-3.70;99.90;;;;;;4986250;28;20431;-76
2022/12/09 03:51:20;;;;;;;7.90;5.40;;;-3.60;99.90;;;;;;4991798;28;20417;-75
2022/12/09 03:53:58;;;;;;;12.83;5.80;;;-3.60;99.90;;;;;;4986314;28;20420;-75
2022/12/09 03:56:37;;;;;;;15.23;6.40;;;-3.60;99.90;;;;;;4993596;28;20429;-76
2022/12/09 03:59:06;;;;;;;10.23;6.00;;;-3.70;99.90;;;;;;4994307;28;20385;-74
2022/12/09 04:01:32;;;;;;;9.70;6.83;;;-3.70;99.90;;;;;;4990646;28;20805;-74
2022/12/09 04:03:57;;;;;;;8.87;6.07;;;-3.70;99.90;;;;;;4992969;28;20434;-75
2022/12/09 04:06:23;;;;;;;8.57;5.77;;;-3.70;99.90;;;;;;4993480;28;20200;-77
2022/12/09 04:08:48;;;;;;;8.87;5.80;;;-3.70;99.90;;;;;;4991685;28;20183;-76
2022/12/09 04:11:14;;;;;;;8.47;5.80;;;-3.70;99.90;;;;;;4993872;28;20675;-75
2022/12/09 04:13:39;;;;;;;9.87;5.30;;;-3.70;99.90;;;;;;4992258;28;20187;-76
2022/12/09 04:16:05;;;;;;;8.50;5.13;;;-3.70;99.90;;;;;;4987071;28;20678;-76
2022/12/09 04:18:31;;;;;;;9.57;6.37;;;-3.70;99.90;;;;;;4991686;28;20271;-75
2022/12/09 04:20:56;;;;;;;6.90;5.37;;;-3.70;99.90;;;;;;4993631;28;20746;-75
2022/12/09 04:23:22;;;;;;;6.00;5.40;;;-3.60;99.90;;;;;;4993721;28;20258;-75
2022/12/09 04:25:47;;;;;;;16.80;5.60;;;-3.60;99.90;;;;;;4993370;28;20183;-75
2022/12/09 04:28:13;;;;;;;8.23;5.57;;;-3.60;99.90;;;;;;4991741;28;20242;-76
2022/12/09 04:30:46;;;;;;;9.03;5.83;;;-3.60;99.90;;;;;;4989162;28;20180;-76
2022/12/09 04:33:12;;;;;;;8.43;7.00;;;-3.60;99.90;;;;;;4983921;28;20192;-75
2022/12/09 04:35:37;;;;;;;11.93;7.60;;;-3.60;99.90;;;;;;4988712;28;20441;-75
2022/12/09 04:38:03;;;;;;;10.43;6.33;;;-3.60;99.90;;;;;;4993587;28;20183;-77
2022/12/09 04:40:28;;;;;;;10.03;7.00;;;-3.60;99.90;;;;;;4991331;28;20199;-76
2022/12/09 04:42:54;;;;;;;13.30;7.60;;;-3.60;99.90;;;;;;4989089;28;20203;-76
2022/12/09 04:45:20;;;;;;;9.50;6.13;;;-3.60;99.90;;;;;;4992393;28;20184;-75
2022/12/09 04:47:45;;;;;;;15.53;7.53;;;-3.60;99.90;;;;;;4990463;28;20213;-76
2022/12/09 04:50:11;;;;;;;11.80;6.77;;;-3.60;99.90;;;;;;4993296;28;20195;-76
2022/12/09 04:52:36;;;;;;;7.83;6.03;;;-3.60;99.90;;;;;;4989526;28;20230;-76
2022/12/09 04:55:02;;;;;;;12.80;6.90;;;-3.60;99.90;;;;;;4992706;28;20180;-76
2022/12/09 04:57:28;;;;;;;7.53;5.27;;;-3.60;99.90;;;;;;4992913;28;20900;-76
2022/12/09 04:59:54;;;;;;;11.87;6.50;;;-3.50;99.90;;;;;;4992948;28;20806;-75
2022/12/09 05:02:20;;;;;;;12.13;6.30;;;-3.60;99.90;;;;;;4988286;28;20524;-75
2022/12/09 05:04:45;;;;;;;12.17;7.20;;;-3.60;99.90;;;;;;4990971;28;20971;-75
2022/12/09 05:07:12;;;;;;;9.07;6.90;;;-3.60;99.90;;;;;;4992457;28;20212;-74
2022/12/09 05:09:37;;;;;;;9.10;6.70;;;-3.60;99.90;;;;;;4992832;28;20165;-74
2022/12/09 05:12:03;;;;;;;15.97;8.37;;;-3.60;99.90;;;;;;4992730;28;20466;-75
2022/12/09 05:14:29;;;;;;;12.53;7.30;;;-3.60;99.90;;;;;;4988397;28;20195;-75
2022/12/09 05:16:54;;;;;;;10.03;5.97;;;-3.50;99.90;;;;;;4990486;28;20836;-75
2022/12/09 05:19:20;;;;;;;11.00;7.17;;;-3.50;99.90;;;;;;4990615;28;20217;-75
2022/12/09 05:21:45;;;;;;;10.30;7.20;;;-3.50;99.90;;;;;;4975169;28;20290;-75
2022/12/09 05:24:11;;;;;;;8.03;5.63;;;-3.50;99.90;;;;;;4990612;28;20226;-72
2022/12/09 05:26:37;;;;;;;8.10;6.70;;;-3.50;99.90;;;;;;4990334;28;20207;-75
2022/12/09 05:29:03;;;;;;;12.53;7.23;;;-3.50;99.90;;;;;;4989966;28;21021;-74
2022/12/09 05:31:28;;;;;;;10.93;6.77;;;-3.40;99.90;;;;;;4989910;28;20227;-75
2022/12/09 05:33:54;;;;;;;10.80;6.50;;;-3.40;99.90;;;;;;4989079;28;20989;-75
2022/12/09 05:36:23;;;;;;;9.20;5.60;;;-3.40;99.90;;;;;;4991194;28;20199;-75
2022/12/09 05:38:49;;;;;;;12.93;5.50;;;-3.40;99.90;;;;;;4992641;28;20417;-75
2022/12/09 05:41:19;;;;;;;13.17;6.53;;;-3.40;99.90;;;;;;4973638;28;20598;-75
2022/12/09 05:43:45;;;;;;;12.50;7.33;;;-3.40;99.90;;;;;;4992600;28;20407;-76
2022/12/09 05:46:12;;;;;;;8.47;6.90;;;-3.30;99.90;;;;;;4986249;28;20547;-75
2022/12/09 05:48:37;;;;;;;11.40;6.90;;;-3.40;99.90;;;;;;4992024;28;20434;-76
2022/12/09 05:51:07;;;;;;;13.43;7.07;;;-3.30;99.90;;;;;;4991827;28;20423;-75
2022/12/09 05:53:33;;;;;;;15.07;7.77;;;-3.40;99.90;;;;;;4990112;28;20188;-75
2022/12/09 05:55:59;;;;;;;9.67;6.00;;;-3.40;99.90;;;;;;4991198;28;20389;-75
2022/12/09 05:58:24;;;;;;;11.20;7.23;;;-3.30;99.90;;;;;;4988773;28;20444;-75
2022/12/09 06:00:50;;;;;;;10.60;6.77;;;-3.30;99.90;;;;;;4989918;28;20202;-75
2022/12/09 06:03:16;;;;;;;8.83;5.33;;;-3.30;99.90;;;;;;4989409;28;20179;-75
2022/12/09 06:05:41;;;;;;;9.43;6.43;;;-3.30;99.90;;;;;;4993511;28;20190;-75
2022/12/09 06:08:07;;;;;;;12.67;7.37;;;-3.30;99.90;;;;;;5000942;28;20214;-76
2022/12/09 06:10:33;;;;;;;10.60;6.00;;;-3.30;99.90;;;;;;5007853;28;20211;-75
2022/12/09 06:12:59;;;;;;;7.30;6.40;;;-3.40;99.90;;;;;;4979985;28;20185;-75
2022/12/09 06:15:24;;;;;;;8.80;6.70;;;-3.30;99.90;;;;;;4991585;28;20474;-76
2022/12/09 06:17:50;;;;;;;7.87;5.97;;;-3.30;99.90;;;;;;4987993;28;20273;-75
2022/12/09 06:20:16;;;;;;;10.70;6.40;;;-3.30;99.90;;;;;;4991628;28;20717;-74
2022/12/09 06:22:42;;;;;;;9.07;6.03;;;-3.30;99.90;;;;;;4991377;28;20303;-75
2022/12/09 06:25:08;;;;;;;11.73;6.23;;;-3.20;99.90;;;;;;4989137;28;20446;-75
2022/12/09 06:27:33;;;;;;;10.37;7.03;;;-3.20;99.90;;;;;;4991737;28;20273;-75
2022/12/09 06:29:59;;;;;;;9.07;6.73;;;-3.20;99.90;;;;;;4987914;28;20425;-73
2022/12/09 06:32:25;;;;;;;9.90;6.10;;;-3.20;99.90;;;;;;4984475;28;20645;-75
2022/12/09 06:34:50;;;;;;;8.80;6.00;;;-3.10;99.90;;;;;;4984780;28;20554;-76
2022/12/09 06:37:16;;;;;;;9.83;6.00;;;-3.10;99.90;;;;;;4991777;28;20591;-75
2022/12/09 06:39:41;;;;;;;11.93;6.27;;;-3.10;99.90;;;;;;4991064;28;20711;-74
2022/12/09 06:42:07;;;;;;;9.13;5.97;;;-3.10;99.90;;;;;;4992399;28;20222;-75
2022/12/09 06:44:33;;;;;;;8.93;6.47;;;-3.10;99.90;;;;;;4995986;28;20194;-75
2022/12/09 06:46:59;;;;;;;9.33;6.00;;;-3.10;99.90;;;;;;4993394;28;20211;-76
2022/12/09 06:49:24;;;;;;;10.80;6.67;;;-3.10;99.90;;;;;;4999562;28;20180;-73
2022/12/09 06:51:50;;;;;;;11.17;6.20;;;-3.00;99.90;;;;;;4999293;28;20233;-74
2022/12/09 06:54:16;;;;;;;10.67;6.47;;;-3.00;99.90;;;;;;5000448;28;20193;-73
2022/12/09 06:56:41;;;;;;;12.53;7.17;;;-2.90;99.90;;;;;;4978122;28;20203;-76
2022/12/09 06:59:08;;;;;;;9.30;6.30;;;-2.90;99.90;;;;;;4994837;28;20187;-78
2022/12/09 07:01:35;;;;;;;8.30;6.80;;;-2.90;99.90;;;;;;4987156;28;20211;-78
2022/12/09 07:04:02;;;;;;;9.97;7.50;;;-2.80;99.90;;;;;;4995357;28;20825;-75
2022/12/09 07:06:31;;;;;;;9.40;5.57;;;-2.70;99.90;;;;;;4994494;28;20462;-77
2022/12/09 07:09:00;;;;;;;10.60;7.53;;;-2.70;99.90;;;;;;4994330;28;20458;-77
2022/12/09 07:11:26;;;;;;;9.90;6.40;;;-2.70;99.90;;;;;;4988648;28;20467;-78
2022/12/09 07:13:52;;;;;;;10.80;6.83;;;-2.60;99.90;;;;;;4993429;28;20435;-77
2022/12/09 07:16:17;;;;;;;10.50;6.67;;;-2.70;99.90;;;;;;4991863;28;20187;-77
2022/12/09 07:18:43;;;;;;;8.47;6.70;;;-2.60;99.90;;;;;;4990316;28;20614;-76
2022/12/09 07:21:14;;;;;;;9.77;5.80;;;-2.60;99.90;;;;;;4994423;28;20208;-77
2022/12/09 07:23:40;;;;;;;9.67;6.60;;;-2.50;99.90;;;;;;4992747;28;20183;-79
2022/12/09 07:26:07;;;;;;;13.00;6.90;;;-2.50;99.90;;;;;;4994036;28;20421;-78
2022/12/09 07:28:34;;;;;;;12.03;7.27;;;-2.40;99.90;;;;;;4994554;28;20416;-77
2022/12/09 07:30:59;;;;;;;8.90;6.33;;;-2.40;99.90;;;;;;4984482;28;20470;-79
2022/12/09 07:33:25;;;;;;;14.97;7.70;;;-2.40;99.90;;;;;;4973338;28;20842;-78
2022/12/09 07:35:57;;;;;;;13.63;7.40;;;-2.30;99.90;;;;;;4990153;28;20186;-78
2022/12/09 07:38:25;;;;;;;13.90;7.47;;;-2.20;99.90;;;;;;4993753;28;20412;-78
2022/12/09 07:40:51;;;;;;;11.17;7.00;;;-2.10;99.90;;;;;;4993925;28;20855;-77
2022/12/09 07:43:16;;;;;;;35.03;14.00;;;-2.00;99.90;;;;;;4993871;28;20421;-78
2022/12/09 07:45:43;;;;;;;32.57;15.67;;;-1.90;99.90;;;;;;4987340;28;20558;-78
2022/12/09 07:48:09;;;;;;;30.20;15.37;;;-1.90;99.90;;;;;;4992650;28;20563;-79
2022/12/09 07:50:35;;;;;;;24.80;11.90;;;-1.80;99.90;;;;;;4994009;28;20441;-77
2022/12/09 07:53:01;;;;;;;15.17;8.63;;;-1.70;99.90;;;;;;4993414;28;20818;-78
2022/12/09 07:55:26;;;;;;;15.97;9.00;;;-1.60;99.90;;;;;;4993945;28;20492;-78
2022/12/09 07:57:52;;;;;;;12.87;7.63;;;-1.50;99.90;;;;;;4989954;28;20838;-78
2022/12/09 08:00:18;;;;;;;13.60;8.20;;;-1.40;99.90;;;;;;4993250;28;20186;-79
2022/12/09 08:02:44;;;;;;;11.33;7.63;;;-1.30;99.90;;;;;;4988833;28;20223;-78
2022/12/09 08:05:09;;;;;;;12.27;8.53;;;-1.30;99.90;;;;;;4994005;28;20769;-79
2022/12/09 08:07:35;;;;;;;15.40;8.93;;;-1.30;99.90;;;;;;4993257;28;20298;-78
2022/12/09 08:10:01;;;;;;;13.00;8.80;;;-1.10;99.90;;;;;;4990663;28;20199;-79
2022/12/09 08:12:26;;;;;;;24.37;9.80;;;-1.00;99.90;;;;;;4978845;28;20210;-78
2022/12/09 08:14:52;;;;;;;10.80;7.90;;;-0.90;99.90;;;;;;4987414;28;20186;-78
2022/12/09 08:17:17;;;;;;;16.77;10.05;;;-0.90;99.90;;;;;;4990611;28;20507;-78
2022/12/09 08:19:43;;;;;;;13.17;8.93;;;-0.80;99.90;;;;;;4993773;28;20671;-78
2022/12/09 08:22:09;;;;;;;13.13;8.70;;;-0.80;99.90;;;;;;4994398;28;20544;-79
2022/12/09 08:24:35;;;;;;;15.23;8.90;;;-0.60;99.90;;;;;;4988763;28;20309;-82
2022/12/09 08:27:00;;;;;;;15.33;8.87;;;-0.50;99.90;;;;;;4999902;28;20243;-79
2022/12/09 08:29:26;;;;;;;13.70;8.83;;;-0.40;99.90;;;;;;4998734;28;20181;-76
2022/12/09 08:31:52;;;;;;;16.90;9.90;;;-0.30;99.90;;;;;;4993706;28;20216;-79
2022/12/09 08:34:17;;;;;;;14.80;8.87;;;-0.20;99.90;;;;;;4984227;28;20479;-78
2022/12/09 08:36:43;;;;;;;14.50;9.77;;;-0.10;99.90;;;;;;4991899;28;21391;-80
2022/12/09 08:39:10;;;;;;;15.77;9.17;;;0.00;99.90;;;;;;4993800;28;20189;-79
2022/12/09 08:41:37;;;;;;;22.30;10.27;;;0.00;99.90;;;;;;4991505;28;20295;-79
2022/12/09 08:44:05;;;;;;;17.00;8.63;;;0.20;99.90;;;;;;4995576;28;20531;-79
2022/12/09 08:46:32;;;;;;;16.40;10.73;;;0.30;99.90;;;;;;4982425;28;20446;-78
2022/12/09 08:49:00;;;;;;;17.27;9.77;;;0.50;99.90;;;;;;4983904;28;20405;-79
2022/12/09 08:51:26;;;;;;;18.67;10.07;;;0.50;99.90;;;;;;4979742;28;20460;-78
2022/12/09 08:53:51;;;;;;;20.37;10.07;;;0.60;99.90;;;;;;4980377;28;20425;-78
2022/12/09 08:56:17;;;;;;;18.03;10.53;;;0.60;99.90;;;;;;4962873;28;20987;-78
2022/12/09 08:58:42;;;;;;;14.60;10.17;;;0.60;99.90;;;;;;4979769;28;20263;-78
2022/12/09 09:01:19;;;;;;;21.83;11.10;;;0.60;99.90;;;;;;4979414;28;20204;-78
2022/12/09 09:03:45;;;;;;;17.93;8.93;;;0.60;99.90;;;;;;4977704;28;20181;-77
2022/12/09 09:06:12;;;;;;;15.57;11.07;;;0.60;99.90;;;;;;4991803;28;20392;-78
2022/12/09 09:08:38;;;;;;;19.70;10.80;;;0.60;99.90;;;;;;4992128;28;20890;-77
2022/12/09 09:11:09;;;;;;;17.90;10.87;;;0.50;99.90;;;;;;4992121;28;20439;-77
2022/12/09 09:13:36;;;;;;;13.93;9.47;;;0.50;99.90;;;;;;4992611;28;20457;-78
2022/12/09 09:16:01;;;;;;;13.77;9.90;;;0.50;99.90;;;;;;4992150;28;20467;-76
2022/12/09 09:18:27;;;;;;;17.53;10.43;;;0.50;99.90;;;;;;4991902;28;20508;-78
2022/12/09 09:20:57;;;;;;;12.70;9.53;;;0.50;99.90;;;;;;4992109;28;20180;-78
2022/12/09 09:23:23;;;;;;;16.57;10.67;;;0.50;99.90;;;;;;4992202;28;20679;-78
2022/12/09 09:25:49;;;;;;;21.40;10.30;;;0.60;99.90;;;;;;4992220;28;20445;-78
2022/12/09 09:28:14;;;;;;;24.40;11.27;;;0.50;99.90;;;;;;4992495;28;20470;-78
2022/12/09 09:30:40;;;;;;;15.13;10.37;;;0.50;99.90;;;;;;4992418;28;20184;-78
2022/12/09 09:33:06;;;;;;;23.90;10.17;;;0.50;99.90;;;;;;4992150;28;20282;-78
2022/12/09 09:35:32;;;;;;;17.27;11.23;;;0.50;99.90;;;;;;4992200;28;20184;-78
2022/12/09 09:37:58;;;;;;;19.80;10.67;;;0.50;99.90;;;;;;4992540;28;20428;-78
2022/12/09 09:40:26;;;;;;;19.77;11.07;;;0.50;99.90;;;;;;4992373;28;20236;-78
2022/12/09 09:42:54;;;;;;;17.50;10.90;;;0.50;99.90;;;;;;4974771;28;20421;-78
2022/12/09 09:45:22;;;;;;;15.93;11.23;;;0.60;99.90;;;;;;4992151;28;20438;-78
2022/12/09 09:48:09;;;;;;;18.40;11.63;;;0.60;99.90;;;;;;4992156;28;20438;-78
2022/12/09 09:50:36;;;;;;;14.40;10.30;;;0.80;99.90;;;;;;4992410;28;20496;-78
2022/12/09 09:53:29;;;;;;;16.30;10.67;;;0.80;99.90;;;;;;4992137;28;20448;-78
2022/12/09 09:55:56;;;;;;;19.03;10.90;;;0.90;99.90;;;;;;4992124;28;20395;-78
2022/12/09 09:58:44;;;;;;;17.53;11.80;;;1.10;99.90;;;;;;4992337;28;20478;-78
2022/12/09 10:01:13;;;;;;;22.07;13.87;;;1.10;99.90;;;;;;4992133;28;20408;-78
2022/12/09 10:04:01;;;;;;;20.63;12.47;;;1.20;99.90;;;;;;4992107;28;20484;-78
2022/12/09 10:06:42;;;;;;;16.17;12.33;;;1.30;99.90;;;;;;4991841;28;20420;-78
2022/12/09 10:09:21;;;;;;;15.97;11.50;;;1.30;99.90;;;;;;4992079;28;20426;-76
2022/12/09 10:11:50;;;;;;;21.83;11.67;;;1.30;99.90;;;;;;4991867;28;20457;-78
2022/12/09 10:14:41;;;;;;;17.40;11.90;;;1.40;99.90;;;;;;4990405;28;20435;-78
2022/12/09 10:17:34;;;;;;;21.63;12.07;;;1.50;99.90;;;;;;4992814;28;20428;-78
2022/12/09 10:20:14;;;;;;;17.83;12.00;;;1.50;99.90;;;;;;4989816;28;20475;-78
2022/12/09 10:23:02;;;;;;;22.17;13.30;;;1.60;99.90;;;;;;4991401;28;20464;-78
2022/12/09 10:25:30;;;;;;;23.20;12.70;;;1.70;99.90;;;;;;4990370;28;20517;-78
2022/12/09 10:28:10;;;;;;;18.80;11.47;;;1.80;99.90;;;;;;4992174;28;20515;-78
2022/12/09 10:30:37;;;;;;;23.53;15.50;;;1.80;99.90;;;;;;4992154;28;20827;-75
2022/12/09 10:33:03;;;;;;;22.03;11.63;;;1.80;99.90;;;;;;4992795;28;20427;-78
2022/12/09 10:35:29;;;;;;;18.70;13.23;;;1.80;99.90;;;;;;4990899;28;20418;-79
2022/12/09 10:38:06;;;;;;;22.53;11.80;;;1.70;99.90;;;;;;4991530;28;20434;-77
2022/12/09 10:40:54;;;;;;;19.83;13.10;;;1.80;99.90;;;;;;4991371;28;20405;-78
2022/12/09 10:43:39;;;;;;;19.57;12.90;;;1.80;99.90;;;;;;4991241;28;20406;-78
2022/12/09 10:46:08;;;;;;;22.20;11.63;;;1.80;99.90;;;;;;4991619;28;20787;-78
2022/12/09 10:48:49;;;;;;;18.03;11.90;;;1.80;99.90;;;;;;4992784;28;20443;-80
2022/12/09 10:51:27;;;;;;;19.70;13.53;;;1.80;99.90;;;;;;4982299;28;20445;-80
2022/12/09 10:54:17;;;;;;;26.83;14.50;;;1.90;99.90;;;;;;4958029;28;20757;-80
2022/12/09 10:57:02;;;;;;;19.27;12.33;;;1.90;99.90;;;;;;4973624;28;20441;-79
2022/12/09 10:59:29;;;;;;;19.80;13.40;;;2.00;99.90;;;;;;4973779;28;20403;-80
2022/12/09 11:01:57;;;;;;;26.93;13.90;;;2.00;99.90;;;;;;4973580;28;20436;-79
2022/12/09 11:04:25;;;;;;;18.00;12.33;;;1.90;99.90;;;;;;4991260;28;20470;-78
2022/12/09 11:06:53;;;;;;;18.30;13.10;;;2.00;99.90;;;;;;4991009;28;20462;-78
2022/12/09 11:09:47;;;;;;;22.33;12.63;;;1.90;99.90;;;;;;4991373;28;20418;-78
2022/12/09 11:12:36;;;;;;;21.47;12.83;;;1.80;99.90;;;;;;4992139;28;20997;-78
2022/12/09 11:15:21;;;;;;;19.03;13.80;;;1.80;99.90;;;;;;4991411;28;20929;-76
2022/12/09 11:18:03;;;;;;;20.27;12.57;;;1.80;99.90;;;;;;4972483;28;20382;-77
2022/12/09 11:20:31;;;;;;;24.30;14.00;;;1.90;99.90;;;;;;4973572;28;20412;-78
2022/12/09 11:23:12;;;;;;;24.83;14.03;;;1.80;99.90;;;;;;4991336;28;20440;-77
2022/12/09 11:25:49;;;;;;;17.43;13.07;;;1.80;99.90;;;;;;4990724;28;20513;-78
2022/12/09 11:28:14;;;;;;;22.63;13.47;;;1.90;99.90;;;;;;4994486;28;20425;-78
2022/12/09 11:30:49;;;;;;;19.77;13.17;;;2.00;99.90;;;;;;4994551;28;20429;-75
2022/12/09 11:33:18;;;;;;;23.47;14.63;;;2.10;99.90;;;;;;4996106;28;20182;-77
2022/12/09 11:35:43;;;;;;;20.53;12.73;;;2.20;99.90;;;;;;4994447;28;21757;-76
2022/12/09 11:38:38;;;;;;;21.30;13.30;;;2.20;99.90;;;;;;4995114;28;20505;-77
2022/12/09 11:41:10;;;;;;;17.43;12.70;;;2.30;99.90;;;;;;4993216;28;20319;-77
2022/12/09 11:43:38;;;;;;;25.60;13.53;;;2.40;99.90;;;;;;4994558;28;20828;-77
2022/12/09 11:46:31;;;;;;;19.93;13.50;;;2.50;99.90;;;;;;4993769;28;20434;-77
2022/12/09 11:49:10;;;;;;;21.17;13.93;;;2.60;99.90;;;;;;4993619;28;20419;-77
2022/12/09 11:51:39;;;;;;;107.63;36.03;;;2.60;99.90;;;;;;4993034;28;20443;-77
2022/12/09 11:54:26;;;;;;;39.10;20.47;;;2.60;99.90;;;;;;4994492;28;20417;-77
2022/12/09 11:56:52;;;;;;;22.20;13.97;;;2.40;99.90;;;;;;4993734;28;20436;-77
2022/12/09 11:59:39;;;;;;;20.30;13.80;;;2.50;99.90;;;;;;4994278;28;20501;-77
2022/12/09 12:02:24;;;;;;;23.80;14.53;;;2.50;99.90;;;;;;4994016;28;20788;-77
2022/12/09 12:05:14;;;;;;;23.57;14.37;;;2.50;99.90;;;;;;4991897;28;20582;-77
2022/12/09 12:08:05;;;;;;;73.57;31.60;;;2.50;99.90;;;;;;4958567;28;21010;-77
2022/12/09 12:10:36;;;;;;;28.73;15.80;;;2.40;99.90;;;;;;4977019;28;20811;-77
2022/12/09 12:13:08;;;;;;;23.10;13.73;;;2.40;99.90;;;;;;4993577;28;20445;-76
2022/12/09 12:16:07;;;;;;;29.47;15.27;;;2.40;99.90;;;;;;4992274;28;20797;-77
2022/12/09 12:18:45;;;;;;;24.17;13.67;;;2.40;99.90;;;;;;4992413;28;20471;-78
2022/12/09 12:21:19;;;;;;;26.83;15.00;;;2.40;99.90;;;;;;4993947;28;20431;-77
2022/12/09 12:23:50;;;;;;;23.63;14.70;;;2.40;99.90;;;;;;4993351;28;20427;-77
2022/12/09 12:26:24;;;;;;;22.57;15.30;;;2.40;99.90;;;;;;4992885;28;20470;-77
2022/12/09 12:29:28;;;;;;;20.00;13.43;;;2.40;99.90;;;;;;4993718;28;20416;-79
2022/12/09 12:32:02;;;;;;;21.23;13.87;;;2.40;99.90;;;;;;4950184;28;20561;-78
2022/12/09 12:34:33;;;;;;;21.20;14.80;;;2.50;99.90;;;;;;4992413;28;20455;-78
2022/12/09 12:37:29;;;;;;;25.67;15.00;;;2.40;99.90;;;;;;4993742;28;20472;-78
2022/12/09 12:40:13;;;;;;;21.73;14.73;;;2.40;99.90;;;;;;4975052;28;20402;-78
2022/12/09 12:48:56;;;;;;;27.07;15.27;;;2.30;99.90;;;;;;4993262;28;21068;-78
2022/12/09 12:51:45;;;;;;;23.17;15.23;;;2.30;99.90;;;;;;4973972;28;20406;-78
2022/12/09 12:54:36;;;;;;;26.13;15.47;;;2.30;99.90;;;;;;4978043;28;20389;-76
2022/12/09 12:57:32;;;;;;;24.23;16.23;;;2.30;99.90;;;;;;4976033;28;20510;-78
2022/12/09 13:00:01;;;;;;;24.70;15.27;;;2.30;99.90;;;;;;4992715;28;20437;-78
2022/12/09 13:02:47;;;;;;;26.97;14.50;;;2.40;99.90;;;;;;4993131;28;20435;-77
2022/12/09 13:05:26;;;;;;;26.30;16.17;;;2.40;99.90;;;;;;4992115;28;20398;-75
2022/12/09 13:08:12;;;;;;;23.53;15.10;;;2.50;99.90;;;;;;4992056;28;20841;-77
2022/12/09 13:10:45;;;;;;;22.63;15.00;;;2.50;99.90;;;;;;4992797;28;20473;-77
2022/12/09 13:13:20;;;;;;;23.40;15.30;;;2.60;99.90;;;;;;4992641;28;20428;-77
2022/12/09 13:15:50;;;;;;;24.23;15.70;;;2.60;99.90;;;;;;4992738;28;20411;-78
2022/12/09 13:18:30;;;;;;;25.07;17.00;;;2.60;99.90;;;;;;4992415;28;20555;-77
2022/12/09 13:20:58;;;;;;;21.67;14.33;;;2.60;99.90;;;;;;4982473;28;20419;-77
2022/12/09 13:23:28;;;;;;;22.00;14.43;;;2.60;99.90;;;;;;4992562;28;20800;-75
2022/12/09 13:26:12;;;;;;;25.27;16.17;;;2.60;99.90;;;;;;4979430;28;20442;-77
2022/12/09 13:28:51;;;;;;;22.80;15.60;;;2.60;99.90;;;;;;4980790;28;20510;-77
2022/12/09 13:31:19;;;;;;;26.07;15.63;;;2.60;99.90;;;;;;4960859;28;20797;-76
2022/12/09 13:34:31;;;;;;;23.97;15.43;;;2.50;99.90;;;;;;4977585;28;20426;-79
2022/12/09 13:36:56;;;;;;;34.53;15.77;;;2.50;99.90;;;;;;4910999;28;20992;-78
2022/12/09 13:39:40;;;;;;;23.70;14.40;;;2.50;99.90;;;;;;4992124;28;20491;-77
2022/12/09 13:45:12;;;;;;;26.70;16.67;;;2.50;99.90;;;;;;4991171;28;20809;-77
2022/12/09 13:47:38;;;;;;;22.00;15.60;;;2.50;99.90;;;;;;4992423;28;20453;-79
2022/12/09 13:50:07;;;;;;;25.07;16.40;;;2.50;99.90;;;;;;4991730;28;20783;-81
2022/12/09 13:52:49;;;;;;;31.40;18.77;;;2.40;99.90;;;;;;4992355;28;20308;-79
2022/12/09 13:55:38;;;;;;;30.33;17.40;;;2.40;99.90;;;;;;4989295;28;20472;-78
2022/12/09 13:58:18;;;;;;;23.67;16.73;;;2.50;99.90;;;;;;4992937;28;20475;-78
2022/12/09 14:00:59;;;;;;;29.17;17.90;;;2.50;99.90;;;;;;4966466;28;20918;-76
2022/12/09 14:03:32;;;;;;;28.77;16.90;;;2.50;99.90;;;;;;4973415;28;20761;-79
2022/12/09 14:06:00;;;;;;;30.80;18.37;;;2.40;99.90;;;;;;4988422;28;20429;-77
2022/12/09 14:08:33;;;;;;;26.60;17.03;;;2.40;99.90;;;;;;4995569;28;20491;-77
2022/12/09 14:11:37;;;;;;;38.13;18.30;;;2.40;99.90;;;;;;4994506;28;20406;-76
2022/12/09 14:14:23;;;;;;;28.67;16.97;;;2.40;99.90;;;;;;4990666;28;20530;-75
2022/12/09 14:16:53;;;;;;;42.93;19.90;;;2.30;99.90;;;;;;4973766;28;20514;-75
2022/12/09 14:19:28;;;;;;;26.13;15.80;;;2.30;99.90;;;;;;4976442;28;20425;-77
2022/12/09 14:22:19;;;;;;;30.37;16.30;;;2.40;99.90;;;;;;4977755;28;21025;-80
2022/12/09 14:24:56;;;;;;;26.87;16.57;;;2.40;99.90;;;;;;4978188;28;20426;-78
2022/12/09 14:27:28;;;;;;;27.47;17.37;;;2.40;99.90;;;;;;4979798;28;20456;-78
2022/12/09 14:29:57;;;;;;;26.87;17.53;;;2.40;99.90;;;;;;4976239;28;20502;-77
2022/12/09 14:32:28;;;;;;;36.57;18.90;;;2.30;99.90;;;;;;4975660;28;21037;-77
2022/12/09 14:35:08;;;;;;;33.90;18.90;;;2.30;99.90;;;;;;4980347;28;20427;-78
2022/12/09 14:38:03;;;;;;;30.77;19.30;;;2.30;99.90;;;;;;4982388;28;21191;-78